Mount Airy, Louisiana
Current Conditions -  °F | °C
As of 2:35 PM on Friday 28 Nov 2014 (Local Time) from K1L0 Reporting Station
Clear Clear  
Wind Chill: 62°   Ceiling: Unl
Heat Index: 62°   Visibility: 10mi
Dew Point: 40°   Wind: 6mph
Humidity: 44%   Direction: 70°ENE
Pressure: 30.3"   Gusts: NA
Location:  30.05°N, 90.64°W
Report Text: K1L0 282035Z AUTO 07005KT 10SM CLR 17/04 A3030 RMK AO2 T01670042
Loading
Personal Weather Stations






























Interactive Weather Map New forecast layout! Learn more

10-Day Weather Forecast

Advertisements
Track Severe Weather on mobile